Terminal Aerodrome Forecast
Issued by NWS

Home | Current Version | Previous Version | Text Only | Print | Product List | Glossary Off
Versions: 1 2 3 4 5 6 7 8 9 10 11 12 13 14 15 16 17

000
FTUS43 KTOP 211100
TAFMHK
TAF
KMHK 211120Z 2112/2212 20011KT P6SM OVC013
     FM212300 19012KT 3SM -DZ BR OVC013
     FM220700 21012KT 3SM -RA BR OVC018=

USA.gov is the U.S. government's official web portal to all federal, state and local government web resources and services.